N81590 KEWR-KFLL
Flight info
| Callsign | N81590 |
|---|---|
| Flight time | 3h 7m |
| Altitude | 38000 |
| Route | KEWR/22R N0472F360 DCT ELVAE DCT NECCK DCT WHITE Q409 CRPLR DCT PAACK Q97 CAKET/N0469F380 Q97 PRMUS CUUDA3 KFLL/10L |
| Aircraft | B738/M-VGDW/C |
Departure
| Time | 2026-05-03 20:37 |
|---|---|
| Airport | Newark Liberty International Airport (KEWR) |
Arrival
| Time | 2026-05-03 23:44 |
|---|---|
| Airport | Fort Lauderdale Hollywood International Airport (KFLL) |
| Time | Latitude | Longitude | Altitude | Speed | Heading |
|---|---|---|---|---|---|
| 2026-05-03 20:19 | 40.69418 | -74.17425 | 18 ft | 0 kts | 18° |
| 2026-05-03 20:28 | 40.69417 | -74.17426 | 18 ft | 2 kts | 18° |
| 2026-05-03 20:28 | 40.69399 | -74.17433 | 19 ft | 3 kts | 18° |
| 2026-05-03 20:28 | 40.69381 | -74.17441 | 19 ft | 3 kts | 18° |
| 2026-05-03 20:28 | 40.69363 | -74.17448 | 17 ft | 3 kts | 18° |
| 2026-05-03 20:29 | 40.69345 | -74.17456 | 19 ft | 3 kts | 18° |
| 2026-05-03 20:29 | 40.69326 | -74.17464 | 18 ft | 3 kts | 18° |
| 2026-05-03 20:33 | 40.69335 | -74.17448 | 18 ft | 7 kts | 68° |
| 2026-05-03 20:33 | 40.69314 | -74.17319 | 17 ft | 21 kts | 121° |
| 2026-05-03 20:33 | 40.69237 | -74.17146 | 18 ft | 21 kts | 117° |
| 2026-05-03 20:33 | 40.69250 | -74.17023 | 18 ft | 15 kts | 36° |
| 2026-05-03 20:34 | 40.69347 | -74.16957 | 20 ft | 15 kts | 25° |
| 2026-05-03 20:34 | 40.69442 | -74.16896 | 22 ft | 16 kts | 26° |
| 2026-05-03 20:34 | 40.69550 | -74.16825 | 20 ft | 19 kts | 26° |
| 2026-05-03 20:34 | 40.69677 | -74.16745 | 18 ft | 21 kts | 26° |
| 2026-05-03 20:35 | 40.69824 | -74.16651 | 14 ft | 25 kts | 26° |
| 2026-05-03 20:35 | 40.69928 | -74.16587 | 15 ft | 14 kts | 28° |
| 2026-05-03 20:35 | 40.69983 | -74.16477 | 13 ft | 18 kts | 96° |
| 2026-05-03 20:35 | 40.69946 | -74.16419 | 13 ft | 7 kts | 199° |
| 2026-05-03 20:36 | 40.69937 | -74.16424 | 13 ft | 0 kts | 202° |
| 2026-05-03 20:36 | 40.69921 | -74.16432 | 13 ft | 14 kts | 203° |
| 2026-05-03 20:36 | 40.69594 | -74.16642 | 21 ft | 98 kts | 205° |
| 2026-05-03 20:37 | 40.68714 | -74.17197 | 85 ft | 175 kts | 206° |
| 2026-05-03 20:37 | 40.67536 | -74.18001 | 817 ft | 202 kts | 209° |
| 2026-05-03 20:37 | 40.66280 | -74.18919 | 1865 ft | 208 kts | 210° |
| 2026-05-03 20:37 | 40.65026 | -74.19880 | 3000 ft | 209 kts | 211° |
| 2026-05-03 20:38 | 40.63728 | -74.20792 | 3617 ft | 222 kts | 207° |
| 2026-05-03 20:38 | 40.62289 | -74.21703 | 3418 ft | 230 kts | 205° |
| 2026-05-03 20:38 | 40.60814 | -74.22545 | 3173 ft | 230 kts | 203° |
| 2026-05-03 20:38 | 40.59352 | -74.23338 | 2922 ft | 226 kts | 202° |
| 2026-05-03 20:39 | 40.57934 | -74.24119 | 2693 ft | 222 kts | 204° |
| 2026-05-03 20:39 | 40.56498 | -74.24954 | 2610 ft | 225 kts | 205° |
| 2026-05-03 20:39 | 40.55091 | -74.25809 | 2566 ft | 225 kts | 204° |
| 2026-05-03 20:39 | 40.53588 | -74.26121 | 2615 ft | 219 kts | 166° |
| 2026-05-03 20:40 | 40.52135 | -74.25416 | 3044 ft | 233 kts | 159° |
| 2026-05-03 20:40 | 40.50545 | -74.24635 | 3402 ft | 254 kts | 160° |
| 2026-05-03 20:40 | 40.48805 | -74.23813 | 3780 ft | 278 kts | 161° |
| 2026-05-03 20:40 | 40.46942 | -74.22956 | 4312 ft | 288 kts | 161° |
| 2026-05-03 20:41 | 40.45043 | -74.22098 | 4836 ft | 289 kts | 161° |
| 2026-05-03 20:41 | 40.43140 | -74.21249 | 5357 ft | 291 kts | 161° |
| 2026-05-03 20:41 | 40.41207 | -74.20393 | 6060 ft | 300 kts | 164° |
| 2026-05-03 20:41 | 40.39203 | -74.19513 | 6605 ft | 315 kts | 165° |
| 2026-05-03 20:42 | 40.37103 | -74.18590 | 7142 ft | 319 kts | 165° |
| 2026-05-03 20:42 | 40.35005 | -74.17669 | 7667 ft | 319 kts | 165° |
| 2026-05-03 20:42 | 40.32899 | -74.16747 | 8220 ft | 321 kts | 165° |
| 2026-05-03 20:42 | 40.30718 | -74.16214 | 8693 ft | 318 kts | 187° |
| 2026-05-03 20:43 | 40.28576 | -74.16686 | 9348 ft | 311 kts | 197° |
| 2026-05-03 20:43 | 40.26434 | -74.17341 | 9925 ft | 320 kts | 198° |
| 2026-05-03 20:43 | 40.24265 | -74.18020 | 10528 ft | 322 kts | 199° |
| 2026-05-03 20:43 | 40.22077 | -74.18700 | 11122 ft | 323 kts | 199° |
| 2026-05-03 20:44 | 40.19885 | -74.19370 | 11735 ft | 325 kts | 199° |
| 2026-05-03 20:44 | 40.17678 | -74.20038 | 12350 ft | 326 kts | 199° |
| 2026-05-03 20:44 | 40.15480 | -74.20699 | 12999 ft | 332 kts | 199° |
| 2026-05-03 20:44 | 40.13197 | -74.21385 | 13663 ft | 341 kts | 199° |
| 2026-05-03 20:45 | 40.10861 | -74.22083 | 14255 ft | 349 kts | 199° |
| 2026-05-03 20:45 | 40.08467 | -74.22796 | 14868 ft | 356 kts | 199° |
| 2026-05-03 20:45 | 40.06031 | -74.23520 | 15503 ft | 362 kts | 199° |
| 2026-05-03 20:45 | 40.03554 | -74.24257 | 16115 ft | 368 kts | 199° |
| 2026-05-03 20:46 | 40.01110 | -74.25228 | 16690 ft | 367 kts | 210° |
| 2026-05-03 20:46 | 39.98863 | -74.26758 | 17355 ft | 362 kts | 221° |
| 2026-05-03 20:46 | 39.96845 | -74.28647 | 18032 ft | 363 kts | 224° |
| 2026-05-03 20:46 | 39.94814 | -74.30629 | 18636 ft | 366 kts | 224° |
| 2026-05-03 20:47 | 39.92768 | -74.32626 | 19221 ft | 370 kts | 224° |
| 2026-05-03 20:47 | 39.90691 | -74.34635 | 19822 ft | 373 kts | 224° |
| 2026-05-03 20:47 | 39.88599 | -74.36642 | 20420 ft | 375 kts | 224° |
| 2026-05-03 20:47 | 39.86486 | -74.38654 | 21041 ft | 377 kts | 224° |
| 2026-05-03 20:48 | 39.84362 | -74.40673 | 21639 ft | 378 kts | 224° |
| 2026-05-03 20:48 | 39.82239 | -74.42695 | 22291 ft | 378 kts | 225° |
| 2026-05-03 20:48 | 39.80294 | -74.44885 | 22892 ft | 372 kts | 233° |
| 2026-05-03 20:48 | 39.78487 | -74.47274 | 23616 ft | 370 kts | 234° |
| 2026-05-03 20:49 | 39.76707 | -74.49681 | 24166 ft | 369 kts | 234° |
| 2026-05-03 20:49 | 39.74931 | -74.52088 | 24748 ft | 368 kts | 234° |
| 2026-05-03 20:49 | 39.73160 | -74.54475 | 25327 ft | 367 kts | 233° |
| 2026-05-03 20:49 | 39.71385 | -74.56852 | 25935 ft | 365 kts | 233° |
| 2026-05-03 20:50 | 39.69612 | -74.59214 | 26548 ft | 364 kts | 233° |
| 2026-05-03 20:50 | 39.67852 | -74.61550 | 27158 ft | 361 kts | 233° |
| 2026-05-03 20:50 | 39.66121 | -74.63841 | 27788 ft | 358 kts | 233° |
| 2026-05-03 20:50 | 39.64382 | -74.66139 | 28439 ft | 355 kts | 233° |
| 2026-05-03 20:51 | 39.62660 | -74.68413 | 29103 ft | 352 kts | 233° |
| 2026-05-03 20:51 | 39.60956 | -74.70660 | 29776 ft | 348 kts | 233° |
| 2026-05-03 20:51 | 39.59271 | -74.72879 | 30392 ft | 343 kts | 233° |
| 2026-05-03 20:51 | 39.57608 | -74.75068 | 30964 ft | 338 kts | 233° |
| 2026-05-03 20:52 | 39.55973 | -74.77220 | 31544 ft | 332 kts | 233° |
| 2026-05-03 20:52 | 39.54368 | -74.79330 | 32145 ft | 326 kts | 233° |
| 2026-05-03 20:52 | 39.52813 | -74.81373 | 32726 ft | 319 kts | 233° |
| 2026-05-03 20:52 | 39.51273 | -74.83393 | 33352 ft | 311 kts | 233° |
| 2026-05-03 20:53 | 39.49776 | -74.85357 | 33969 ft | 302 kts | 233° |
| 2026-05-03 20:53 | 39.48311 | -74.87279 | 34295 ft | 301 kts | 233° |
| 2026-05-03 20:53 | 39.46812 | -74.89261 | 34133 ft | 316 kts | 234° |
| 2026-05-03 20:53 | 39.45244 | -74.91333 | 34021 ft | 329 kts | 233° |
| 2026-05-03 20:54 | 39.43615 | -74.93475 | 34049 ft | 337 kts | 233° |
| 2026-05-03 20:54 | 39.40249 | -74.97877 | 34169 ft | 352 kts | 233° |
| 2026-05-03 20:54 | 39.38532 | -75.00118 | 34231 ft | 359 kts | 232° |
| 2026-05-03 20:55 | 39.34948 | -75.04790 | 34347 ft | 373 kts | 232° |
| 2026-05-03 20:55 | 39.31234 | -75.09629 | 34450 ft | 386 kts | 232° |
| 2026-05-03 20:56 | 39.27362 | -75.14585 | 34551 ft | 397 kts | 231° |
| 2026-05-03 20:56 | 39.25368 | -75.17072 | 34750 ft | 399 kts | 231° |
| 2026-05-03 20:56 | 39.23374 | -75.19548 | 35072 ft | 397 kts | 231° |
| 2026-05-03 20:57 | 39.21398 | -75.22002 | 35427 ft | 394 kts | 231° |
| 2026-05-03 20:57 | 39.19456 | -75.24419 | 35685 ft | 393 kts | 231° |
| 2026-05-03 20:57 | 39.17491 | -75.26873 | 35868 ft | 395 kts | 231° |
| 2026-05-03 20:57 | 39.15517 | -75.29337 | 36078 ft | 395 kts | 231° |
| 2026-05-03 20:58 | 39.13547 | -75.31794 | 36397 ft | 393 kts | 231° |
| 2026-05-03 20:58 | 39.11589 | -75.34234 | 36713 ft | 390 kts | 230° |
| 2026-05-03 20:58 | 39.09638 | -75.36664 | 36896 ft | 391 kts | 230° |
| 2026-05-03 20:58 | 39.07685 | -75.39094 | 37142 ft | 390 kts | 230° |
| 2026-05-03 20:59 | 39.05582 | -75.41334 | 37385 ft | 398 kts | 219° |
| 2026-05-03 20:59 | 39.03143 | -75.42993 | 37644 ft | 405 kts | 211° |
| 2026-05-03 20:59 | 39.00479 | -75.44223 | 37949 ft | 412 kts | 202° |
| 2026-05-03 20:59 | 38.97603 | -75.44850 | 38036 ft | 424 kts | 195° |
| 2026-05-03 21:00 | 38.93663 | -75.45365 | 38074 ft | 429 kts | 194° |
| 2026-05-03 21:00 | 38.85681 | -75.46367 | 38083 ft | 436 kts | 195° |
| 2026-05-03 21:01 | 38.79618 | -75.47203 | 38092 ft | 440 kts | 195° |
| 2026-05-03 21:01 | 38.73541 | -75.48056 | 38092 ft | 444 kts | 195° |
| 2026-05-03 21:02 | 38.67381 | -75.48901 | 38085 ft | 446 kts | 195° |
| 2026-05-03 21:02 | 38.61281 | -75.49712 | 38091 ft | 435 kts | 195° |
| 2026-05-03 21:03 | 38.55297 | -75.50516 | 38112 ft | 432 kts | 195° |
| 2026-05-03 21:03 | 38.49360 | -75.51322 | 38116 ft | 432 kts | 195° |
| 2026-05-03 21:04 | 38.43381 | -75.52128 | 38067 ft | 432 kts | 196° |
| 2026-05-03 21:04 | 38.37424 | -75.52977 | 38075 ft | 427 kts | 200° |
| 2026-05-03 21:05 | 38.34597 | -75.53938 | 38146 ft | 414 kts | 209° |
| 2026-05-03 21:05 | 38.31957 | -75.55318 | 38101 ft | 408 kts | 215° |
| 2026-05-03 21:05 | 38.27260 | -75.59116 | 38106 ft | 399 kts | 222° |
| 2026-05-03 21:06 | 38.22722 | -75.63116 | 38055 ft | 401 kts | 223° |
| 2026-05-03 21:06 | 38.18134 | -75.67130 | 38099 ft | 401 kts | 222° |
| 2026-05-03 21:07 | 38.13525 | -75.71139 | 38122 ft | 401 kts | 222° |
| 2026-05-03 21:07 | 38.08912 | -75.75141 | 38132 ft | 402 kts | 222° |
| 2026-05-03 21:08 | 38.04322 | -75.79116 | 38137 ft | 402 kts | 222° |
| 2026-05-03 21:08 | 37.99708 | -75.83105 | 38131 ft | 401 kts | 223° |
| 2026-05-03 21:09 | 37.95104 | -75.87079 | 38140 ft | 399 kts | 223° |
| 2026-05-03 21:09 | 37.90510 | -75.91040 | 38136 ft | 398 kts | 223° |
| 2026-05-03 21:10 | 37.85959 | -75.94957 | 38137 ft | 397 kts | 223° |
| 2026-05-03 21:10 | 37.81392 | -75.98883 | 38126 ft | 396 kts | 223° |
| 2026-05-03 21:11 | 37.76836 | -76.02792 | 38144 ft | 394 kts | 223° |
| 2026-05-03 21:11 | 37.72296 | -76.06684 | 38151 ft | 393 kts | 223° |
| 2026-05-03 21:12 | 37.67762 | -76.10565 | 38157 ft | 393 kts | 223° |
| 2026-05-03 21:12 | 37.63263 | -76.14410 | 38152 ft | 392 kts | 223° |
| 2026-05-03 21:13 | 37.58622 | -76.18107 | 38147 ft | 399 kts | 218° |
| 2026-05-03 21:13 | 37.53698 | -76.21373 | 38143 ft | 401 kts | 217° |
| 2026-05-03 21:14 | 37.48738 | -76.24607 | 38147 ft | 401 kts | 217° |
| 2026-05-03 21:14 | 37.43815 | -76.27844 | 38143 ft | 402 kts | 217° |
| 2026-05-03 21:15 | 37.38858 | -76.31124 | 38116 ft | 403 kts | 218° |
| 2026-05-03 21:15 | 37.33901 | -76.34406 | 38136 ft | 403 kts | 217° |
| 2026-05-03 21:16 | 37.28942 | -76.37687 | 38147 ft | 403 kts | 217° |
| 2026-05-03 21:16 | 37.24012 | -76.40944 | 38145 ft | 402 kts | 217° |
| 2026-05-03 21:17 | 37.19860 | -76.43683 | 38139 ft | 403 kts | 217° |
| 2026-05-03 21:17 | 37.14108 | -76.47470 | 38138 ft | 400 kts | 218° |
| 2026-05-03 21:18 | 37.09181 | -76.50710 | 38155 ft | 399 kts | 218° |
| 2026-05-03 21:18 | 37.04294 | -76.53920 | 38137 ft | 399 kts | 218° |
| 2026-05-03 21:19 | 36.99381 | -76.57142 | 38127 ft | 398 kts | 218° |
| 2026-05-03 21:19 | 36.94478 | -76.60352 | 38075 ft | 398 kts | 218° |
| 2026-05-03 21:20 | 36.89597 | -76.63542 | 38132 ft | 396 kts | 218° |
| 2026-05-03 21:20 | 36.84729 | -76.66720 | 38139 ft | 395 kts | 218° |
| 2026-05-03 21:21 | 36.79901 | -76.69868 | 38155 ft | 394 kts | 218° |
| 2026-05-03 21:21 | 36.75047 | -76.73029 | 38155 ft | 394 kts | 218° |
| 2026-05-03 21:22 | 36.70196 | -76.76182 | 38166 ft | 392 kts | 218° |
| 2026-05-03 21:22 | 36.65354 | -76.79325 | 38168 ft | 392 kts | 218° |
| 2026-05-03 21:23 | 36.60515 | -76.82462 | 38169 ft | 392 kts | 218° |
| 2026-05-03 21:23 | 36.55707 | -76.85575 | 38165 ft | 392 kts | 218° |
| 2026-05-03 21:24 | 36.50865 | -76.88705 | 38152 ft | 393 kts | 217° |
| 2026-05-03 21:24 | 36.46030 | -76.91825 | 38153 ft | 391 kts | 217° |
| 2026-05-03 21:25 | 36.41198 | -76.94939 | 38164 ft | 391 kts | 217° |
| 2026-05-03 21:25 | 36.36365 | -76.98050 | 38165 ft | 391 kts | 217° |
| 2026-05-03 21:26 | 36.31562 | -77.01138 | 38168 ft | 391 kts | 217° |
| 2026-05-03 21:26 | 36.26728 | -77.04240 | 38130 ft | 391 kts | 217° |
| 2026-05-03 21:27 | 36.21908 | -77.07329 | 38141 ft | 390 kts | 217° |
| 2026-05-03 21:27 | 36.17094 | -77.10410 | 38144 ft | 389 kts | 217° |
| 2026-05-03 21:28 | 36.12325 | -77.13459 | 38150 ft | 389 kts | 217° |
| 2026-05-03 21:28 | 36.07524 | -77.16523 | 38155 ft | 388 kts | 217° |
| 2026-05-03 21:29 | 36.02733 | -77.19577 | 38157 ft | 386 kts | 217° |
| 2026-05-03 21:29 | 35.97968 | -77.22612 | 38160 ft | 384 kts | 217° |
| 2026-05-03 21:30 | 35.93266 | -77.25642 | 38153 ft | 380 kts | 220° |
| 2026-05-03 21:30 | 35.89089 | -77.29428 | 38216 ft | 369 kts | 226° |
| 2026-05-03 21:31 | 35.85041 | -77.33364 | 38177 ft | 370 kts | 226° |
| 2026-05-03 21:31 | 35.80987 | -77.37278 | 38139 ft | 370 kts | 226° |
| 2026-05-03 21:32 | 35.76930 | -77.41181 | 38136 ft | 370 kts | 226° |
| 2026-05-03 21:32 | 35.72901 | -77.45050 | 38149 ft | 370 kts | 226° |
| 2026-05-03 21:33 | 35.68839 | -77.48946 | 38159 ft | 370 kts | 226° |
| 2026-05-03 21:33 | 35.64779 | -77.52836 | 38156 ft | 370 kts | 226° |
| 2026-05-03 21:34 | 35.61398 | -77.56071 | 38163 ft | 370 kts | 226° |
| 2026-05-03 21:34 | 35.56678 | -77.60581 | 38164 ft | 369 kts | 226° |
| 2026-05-03 21:35 | 35.52627 | -77.64447 | 38162 ft | 369 kts | 226° |
| 2026-05-03 21:35 | 35.48574 | -77.68310 | 38156 ft | 369 kts | 226° |
| 2026-05-03 21:36 | 35.45212 | -77.71513 | 38152 ft | 369 kts | 226° |
| 2026-05-03 21:36 | 35.40505 | -77.75992 | 38159 ft | 368 kts | 226° |
| 2026-05-03 21:37 | 35.36459 | -77.79838 | 38145 ft | 368 kts | 226° |
| 2026-05-03 21:37 | 35.33096 | -77.83030 | 38169 ft | 368 kts | 226° |
| 2026-05-03 21:38 | 35.29045 | -77.86870 | 38172 ft | 368 kts | 226° |
| 2026-05-03 21:38 | 35.24337 | -77.91328 | 38164 ft | 368 kts | 226° |
| 2026-05-03 21:39 | 35.20943 | -77.94536 | 38173 ft | 368 kts | 226° |
| 2026-05-03 21:39 | 35.16916 | -77.98341 | 38179 ft | 368 kts | 225° |
| 2026-05-03 21:40 | 35.12854 | -78.02172 | 38168 ft | 368 kts | 225° |
| 2026-05-03 21:40 | 35.08800 | -78.05990 | 38168 ft | 368 kts | 225° |
| 2026-05-03 21:41 | 35.04741 | -78.09809 | 38165 ft | 368 kts | 225° |
| 2026-05-03 21:41 | 35.00705 | -78.13601 | 38158 ft | 369 kts | 225° |
| 2026-05-03 21:42 | 34.96640 | -78.17415 | 38157 ft | 369 kts | 225° |
| 2026-05-03 21:42 | 34.92576 | -78.21224 | 38090 ft | 369 kts | 225° |
| 2026-05-03 21:43 | 34.88520 | -78.25018 | 38155 ft | 366 kts | 225° |
| 2026-05-03 21:43 | 34.84483 | -78.28792 | 38151 ft | 365 kts | 225° |
| 2026-05-03 21:44 | 34.80485 | -78.32524 | 38140 ft | 364 kts | 225° |
| 2026-05-03 21:44 | 34.76476 | -78.36262 | 38145 ft | 363 kts | 225° |
| 2026-05-03 21:45 | 34.72473 | -78.39991 | 38151 ft | 362 kts | 225° |
| 2026-05-03 21:45 | 34.68479 | -78.43705 | 38121 ft | 360 kts | 225° |
| 2026-05-03 21:46 | 34.64538 | -78.47365 | 38147 ft | 358 kts | 225° |
| 2026-05-03 21:46 | 34.60585 | -78.51034 | 38172 ft | 357 kts | 225° |
| 2026-05-03 21:47 | 34.56638 | -78.54692 | 38172 ft | 356 kts | 225° |
| 2026-05-03 21:47 | 34.52700 | -78.58338 | 38150 ft | 356 kts | 225° |
| 2026-05-03 21:48 | 34.48763 | -78.61979 | 38142 ft | 356 kts | 225° |
| 2026-05-03 21:48 | 34.44855 | -78.65589 | 38142 ft | 355 kts | 225° |
| 2026-05-03 21:49 | 34.40930 | -78.69208 | 38182 ft | 355 kts | 225° |
| 2026-05-03 21:49 | 34.36902 | -78.72708 | 38194 ft | 358 kts | 223° |
| 2026-05-03 21:50 | 34.32777 | -78.76098 | 38181 ft | 359 kts | 223° |
| 2026-05-03 21:50 | 34.28652 | -78.79513 | 38173 ft | 360 kts | 223° |
| 2026-05-03 21:51 | 34.24556 | -78.82923 | 38172 ft | 360 kts | 223° |
| 2026-05-03 21:51 | 34.20430 | -78.86358 | 38159 ft | 360 kts | 223° |
| 2026-05-03 21:52 | 34.16314 | -78.89782 | 38174 ft | 359 kts | 223° |
| 2026-05-03 21:52 | 34.12207 | -78.93198 | 38173 ft | 358 kts | 223° |
| 2026-05-03 21:53 | 34.08106 | -78.96608 | 38171 ft | 358 kts | 223° |
| 2026-05-03 21:53 | 34.04014 | -79.00007 | 38181 ft | 357 kts | 223° |
| 2026-05-03 21:54 | 33.99958 | -79.03372 | 38173 ft | 356 kts | 223° |
| 2026-05-03 21:54 | 33.95887 | -79.06745 | 38195 ft | 354 kts | 223° |
| 2026-05-03 21:55 | 33.91829 | -79.10105 | 38200 ft | 353 kts | 223° |
| 2026-05-03 21:55 | 33.87774 | -79.13456 | 38205 ft | 353 kts | 223° |
| 2026-05-03 21:56 | 33.83718 | -79.16806 | 38208 ft | 353 kts | 223° |
| 2026-05-03 21:56 | 33.79661 | -79.20153 | 38207 ft | 353 kts | 223° |
| 2026-05-03 21:57 | 33.75627 | -79.23477 | 38194 ft | 354 kts | 223° |
| 2026-05-03 21:57 | 33.71559 | -79.26826 | 38185 ft | 354 kts | 223° |
| 2026-05-03 21:58 | 33.67498 | -79.30164 | 38171 ft | 354 kts | 223° |
| 2026-05-03 21:58 | 33.63481 | -79.33552 | 38196 ft | 352 kts | 224° |
| 2026-05-03 21:59 | 33.59483 | -79.36958 | 38205 ft | 352 kts | 224° |
| 2026-05-03 21:59 | 33.55509 | -79.40338 | 38194 ft | 352 kts | 224° |
| 2026-05-03 22:00 | 33.51510 | -79.43730 | 38194 ft | 353 kts | 223° |
| 2026-05-03 22:00 | 33.47505 | -79.47120 | 38191 ft | 351 kts | 223° |
| 2026-05-03 22:01 | 33.43508 | -79.50499 | 38198 ft | 352 kts | 223° |
| 2026-05-03 22:01 | 33.39509 | -79.53876 | 38190 ft | 352 kts | 223° |
| 2026-05-03 22:02 | 33.35508 | -79.57250 | 38185 ft | 352 kts | 223° |
| 2026-05-03 22:02 | 33.31528 | -79.60603 | 38181 ft | 353 kts | 223° |
| 2026-05-03 22:03 | 33.27518 | -79.63977 | 38181 ft | 353 kts | 223° |
| 2026-05-03 22:03 | 33.23506 | -79.67349 | 38161 ft | 352 kts | 223° |
| 2026-05-03 22:04 | 33.19529 | -79.70687 | 38169 ft | 352 kts | 223° |
| 2026-05-03 22:04 | 33.15528 | -79.74042 | 38181 ft | 351 kts | 223° |
| 2026-05-03 22:05 | 33.11529 | -79.77392 | 38200 ft | 351 kts | 223° |
| 2026-05-03 22:05 | 33.07540 | -79.80729 | 38215 ft | 351 kts | 223° |
| 2026-05-03 22:06 | 33.03524 | -79.84086 | 38189 ft | 352 kts | 223° |
| 2026-05-03 22:06 | 32.99512 | -79.87435 | 38172 ft | 353 kts | 223° |
| 2026-05-03 22:07 | 32.95519 | -79.90765 | 38179 ft | 353 kts | 223° |
| 2026-05-03 22:07 | 32.91495 | -79.94117 | 38180 ft | 353 kts | 223° |
| 2026-05-03 22:08 | 32.87466 | -79.97469 | 38184 ft | 353 kts | 223° |
| 2026-05-03 22:08 | 32.83430 | -80.00822 | 38186 ft | 354 kts | 223° |
| 2026-05-03 22:09 | 32.79379 | -80.04186 | 38199 ft | 356 kts | 223° |
| 2026-05-03 22:10 | 32.73309 | -80.09217 | 38174 ft | 355 kts | 222° |
| 2026-05-03 22:10 | 32.69261 | -80.12566 | 38173 ft | 354 kts | 222° |
| 2026-05-03 22:11 | 32.65231 | -80.15898 | 38179 ft | 351 kts | 222° |
| 2026-05-03 22:11 | 32.63254 | -80.17527 | 38186 ft | 340 kts | 223° |
| 2026-05-03 22:11 | 32.61342 | -80.19102 | 38178 ft | 332 kts | 223° |
| 2026-05-03 22:12 | 32.57578 | -80.22215 | 38175 ft | 329 kts | 223° |
| 2026-05-03 22:12 | 32.53842 | -80.25296 | 38175 ft | 326 kts | 223° |
| 2026-05-03 22:13 | 32.50010 | -80.28144 | 38135 ft | 330 kts | 218° |
| 2026-05-03 22:13 | 32.45965 | -80.30694 | 38180 ft | 329 kts | 217° |
| 2026-05-03 22:14 | 32.41921 | -80.33234 | 38202 ft | 329 kts | 217° |
| 2026-05-03 22:14 | 32.37873 | -80.35785 | 38217 ft | 330 kts | 217° |
| 2026-05-03 22:15 | 32.33808 | -80.38351 | 38185 ft | 332 kts | 217° |
| 2026-05-03 22:15 | 32.29715 | -80.40935 | 38175 ft | 335 kts | 217° |
| 2026-05-03 22:16 | 32.25625 | -80.43514 | 38185 ft | 336 kts | 217° |
| 2026-05-03 22:16 | 32.21500 | -80.46111 | 38190 ft | 336 kts | 217° |
| 2026-05-03 22:17 | 32.17367 | -80.48712 | 38177 ft | 337 kts | 217° |
| 2026-05-03 22:17 | 32.13230 | -80.51313 | 38198 ft | 337 kts | 217° |
| 2026-05-03 22:18 | 32.09089 | -80.53912 | 38222 ft | 337 kts | 217° |
| 2026-05-03 22:18 | 32.04953 | -80.56507 | 38199 ft | 337 kts | 217° |
| 2026-05-03 22:19 | 32.00843 | -80.59083 | 38195 ft | 337 kts | 217° |
| 2026-05-03 22:19 | 31.96717 | -80.61666 | 38193 ft | 335 kts | 217° |
| 2026-05-03 22:20 | 31.92606 | -80.64237 | 38194 ft | 334 kts | 217° |
| 2026-05-03 22:20 | 31.88501 | -80.66803 | 38179 ft | 334 kts | 217° |
| 2026-05-03 22:21 | 31.84404 | -80.69360 | 38188 ft | 333 kts | 217° |
| 2026-05-03 22:21 | 31.80337 | -80.71896 | 38206 ft | 333 kts | 217° |
| 2026-05-03 22:22 | 31.76245 | -80.74446 | 38207 ft | 332 kts | 217° |
| 2026-05-03 22:22 | 31.72158 | -80.76990 | 38189 ft | 332 kts | 217° |
| 2026-05-03 22:23 | 31.68081 | -80.79524 | 38203 ft | 331 kts | 217° |
| 2026-05-03 22:23 | 31.64006 | -80.82056 | 38206 ft | 331 kts | 217° |
| 2026-05-03 22:24 | 31.59928 | -80.84587 | 38209 ft | 331 kts | 217° |
| 2026-05-03 22:24 | 31.55849 | -80.87115 | 38203 ft | 332 kts | 217° |
| 2026-05-03 22:25 | 31.51794 | -80.89627 | 38197 ft | 332 kts | 217° |
| 2026-05-03 22:25 | 31.47707 | -80.92156 | 38186 ft | 333 kts | 217° |
| 2026-05-03 22:26 | 31.43613 | -80.94686 | 38162 ft | 333 kts | 217° |
| 2026-05-03 22:26 | 31.39519 | -80.97214 | 38196 ft | 333 kts | 217° |
| 2026-05-03 22:27 | 31.35418 | -80.99745 | 38216 ft | 333 kts | 217° |
| 2026-05-03 22:27 | 31.31336 | -81.02261 | 38200 ft | 334 kts | 217° |
| 2026-05-03 22:28 | 31.27143 | -81.04671 | 38161 ft | 344 kts | 209° |
| 2026-05-03 22:28 | 31.22437 | -81.06051 | 38226 ft | 356 kts | 200° |
| 2026-05-03 22:28 | 31.19926 | -81.06281 | 38105 ft | 366 kts | 195° |
| 2026-05-03 22:29 | 31.17389 | -81.06342 | 38195 ft | 366 kts | 194° |
| 2026-05-03 22:29 | 31.12284 | -81.06408 | 38167 ft | 367 kts | 194° |
| 2026-05-03 22:30 | 31.07210 | -81.06485 | 38204 ft | 366 kts | 194° |
| 2026-05-03 22:30 | 31.02110 | -81.06581 | 38209 ft | 367 kts | 194° |
| 2026-05-03 22:31 | 30.97006 | -81.06686 | 38202 ft | 367 kts | 194° |
| 2026-05-03 22:31 | 30.91899 | -81.06792 | 38166 ft | 367 kts | 194° |
| 2026-05-03 22:32 | 30.86804 | -81.06898 | 38173 ft | 367 kts | 194° |
| 2026-05-03 22:32 | 30.81713 | -81.07005 | 38175 ft | 366 kts | 194° |
| 2026-05-03 22:33 | 30.76653 | -81.07110 | 38173 ft | 366 kts | 194° |
| 2026-05-03 22:33 | 30.71562 | -81.07216 | 38179 ft | 366 kts | 194° |
| 2026-05-03 22:34 | 30.66476 | -81.07322 | 38192 ft | 366 kts | 194° |
| 2026-05-03 22:34 | 30.61400 | -81.07440 | 38179 ft | 362 kts | 195° |
| 2026-05-03 22:35 | 30.56383 | -81.07727 | 38199 ft | 360 kts | 196° |
| 2026-05-03 22:35 | 30.51414 | -81.08051 | 38203 ft | 360 kts | 196° |
| 2026-05-03 22:36 | 30.46415 | -81.08365 | 38206 ft | 359 kts | 196° |
| 2026-05-03 22:36 | 30.41416 | -81.08668 | 38206 ft | 359 kts | 196° |
| 2026-05-03 22:37 | 30.36414 | -81.08967 | 38204 ft | 359 kts | 196° |
| 2026-05-03 22:37 | 30.31418 | -81.09265 | 38200 ft | 359 kts | 196° |
| 2026-05-03 22:38 | 30.26417 | -81.09562 | 38193 ft | 360 kts | 196° |
| 2026-05-03 22:38 | 30.21449 | -81.09857 | 38185 ft | 360 kts | 196° |
| 2026-05-03 22:39 | 30.16415 | -81.10156 | 38176 ft | 360 kts | 196° |
| 2026-05-03 22:39 | 30.11438 | -81.10452 | 38182 ft | 364 kts | 196° |
| 2026-05-03 22:40 | 30.06328 | -81.10761 | 38193 ft | 371 kts | 195° |
| 2026-05-03 22:40 | 30.01102 | -81.11072 | 38193 ft | 380 kts | 195° |
| 2026-05-03 22:41 | 29.95790 | -81.11382 | 38193 ft | 384 kts | 195° |
| 2026-05-03 22:41 | 29.90471 | -81.11691 | 38185 ft | 386 kts | 195° |
| 2026-05-03 22:42 | 29.85105 | -81.12006 | 38184 ft | 387 kts | 195° |
| 2026-05-03 22:42 | 29.82384 | -81.11995 | 38141 ft | 401 kts | 186° |
| 2026-05-03 22:42 | 29.79602 | -81.11238 | 38184 ft | 422 kts | 174° |
| 2026-05-03 22:43 | 29.74122 | -81.08604 | 38175 ft | 429 kts | 171° |
| 2026-05-03 22:43 | 29.68669 | -81.05831 | 38164 ft | 428 kts | 171° |
| 2026-05-03 22:44 | 29.63221 | -81.03108 | 38167 ft | 426 kts | 171° |
| 2026-05-03 22:44 | 29.57812 | -81.00452 | 38166 ft | 425 kts | 172° |
| 2026-05-03 22:45 | 29.52377 | -80.97799 | 38169 ft | 424 kts | 172° |
| 2026-05-03 22:45 | 29.46950 | -80.95154 | 38172 ft | 423 kts | 172° |
| 2026-05-03 22:46 | 29.41529 | -80.92516 | 38167 ft | 424 kts | 172° |
| 2026-05-03 22:46 | 29.36092 | -80.89874 | 38154 ft | 425 kts | 172° |
| 2026-05-03 22:47 | 29.30673 | -80.87241 | 38147 ft | 427 kts | 171° |
| 2026-05-03 22:47 | 29.25199 | -80.84584 | 38142 ft | 429 kts | 171° |
| 2026-05-03 22:48 | 29.19703 | -80.81919 | 38124 ft | 429 kts | 171° |
| 2026-05-03 22:48 | 29.14201 | -80.79253 | 38139 ft | 431 kts | 171° |
| 2026-05-03 22:49 | 29.08674 | -80.76580 | 38165 ft | 432 kts | 171° |
| 2026-05-03 22:49 | 29.03165 | -80.73916 | 38185 ft | 433 kts | 171° |
| 2026-05-03 22:50 | 28.97602 | -80.71230 | 38184 ft | 433 kts | 171° |
| 2026-05-03 22:50 | 28.92026 | -80.68654 | 38114 ft | 430 kts | 173° |
| 2026-05-03 22:51 | 28.86453 | -80.66187 | 38159 ft | 429 kts | 173° |
| 2026-05-03 22:51 | 28.80873 | -80.63718 | 38134 ft | 430 kts | 173° |
| 2026-05-03 22:52 | 28.75296 | -80.61235 | 38131 ft | 431 kts | 173° |
| 2026-05-03 22:52 | 28.69745 | -80.58760 | 38121 ft | 431 kts | 173° |
| 2026-05-03 22:53 | 28.64155 | -80.56268 | 38114 ft | 431 kts | 173° |
| 2026-05-03 22:53 | 28.58562 | -80.53778 | 38101 ft | 431 kts | 173° |
| 2026-05-03 22:54 | 28.52978 | -80.51294 | 38103 ft | 431 kts | 172° |
| 2026-05-03 22:54 | 28.47384 | -80.48812 | 38092 ft | 432 kts | 172° |
| 2026-05-03 22:55 | 28.41778 | -80.46326 | 38109 ft | 433 kts | 172° |
| 2026-05-03 22:55 | 28.36193 | -80.43851 | 38109 ft | 434 kts | 172° |
| 2026-05-03 22:56 | 28.30563 | -80.41359 | 38059 ft | 434 kts | 172° |
| 2026-05-03 22:56 | 28.24941 | -80.38872 | 38095 ft | 434 kts | 172° |
| 2026-05-03 22:57 | 28.19308 | -80.36385 | 38116 ft | 435 kts | 172° |
| 2026-05-03 22:57 | 28.13671 | -80.33897 | 38128 ft | 435 kts | 172° |
| 2026-05-03 22:58 | 28.08021 | -80.31423 | 38126 ft | 434 kts | 173° |
| 2026-05-03 22:58 | 28.02392 | -80.29203 | 38079 ft | 430 kts | 175° |
| 2026-05-03 22:59 | 27.96724 | -80.27039 | 38140 ft | 429 kts | 174° |
| 2026-05-03 22:59 | 27.91064 | -80.24852 | 38146 ft | 430 kts | 174° |
| 2026-05-03 23:00 | 27.85400 | -80.22646 | 38139 ft | 430 kts | 174° |
| 2026-05-03 23:00 | 27.79714 | -80.20433 | 37678 ft | 436 kts | 174° |
| 2026-05-03 23:00 | 27.76856 | -80.19319 | 37351 ft | 431 kts | 174° |
| 2026-05-03 23:01 | 27.74053 | -80.18218 | 37023 ft | 423 kts | 174° |
| 2026-05-03 23:01 | 27.71299 | -80.17141 | 36647 ft | 415 kts | 174° |
| 2026-05-03 23:01 | 27.68625 | -80.16102 | 36303 ft | 410 kts | 174° |
| 2026-05-03 23:01 | 27.65926 | -80.15059 | 35987 ft | 409 kts | 174° |
| 2026-05-03 23:02 | 27.63236 | -80.14018 | 35670 ft | 408 kts | 174° |
| 2026-05-03 23:02 | 27.60541 | -80.12964 | 35370 ft | 414 kts | 173° |
| 2026-05-03 23:02 | 27.57807 | -80.11852 | 35077 ft | 421 kts | 173° |
| 2026-05-03 23:02 | 27.55052 | -80.10709 | 34776 ft | 423 kts | 172° |
| 2026-05-03 23:03 | 27.52292 | -80.09555 | 34477 ft | 423 kts | 172° |
| 2026-05-03 23:03 | 27.49538 | -80.08407 | 34185 ft | 422 kts | 172° |
| 2026-05-03 23:03 | 27.46783 | -80.07266 | 33867 ft | 422 kts | 172° |
| 2026-05-03 23:03 | 27.44027 | -80.06130 | 33535 ft | 421 kts | 172° |
| 2026-05-03 23:04 | 27.41309 | -80.05013 | 33198 ft | 421 kts | 172° |
| 2026-05-03 23:04 | 27.38555 | -80.03884 | 32876 ft | 421 kts | 172° |
| 2026-05-03 23:04 | 27.35783 | -80.02915 | 32536 ft | 416 kts | 176° |
| 2026-05-03 23:04 | 27.32987 | -80.02093 | 32227 ft | 414 kts | 177° |
| 2026-05-03 23:05 | 27.30190 | -80.01290 | 31908 ft | 416 kts | 176° |
| 2026-05-03 23:05 | 27.27384 | -80.00457 | 31599 ft | 416 kts | 176° |
| 2026-05-03 23:05 | 27.24619 | -79.99594 | 31279 ft | 410 kts | 174° |
| 2026-05-03 23:05 | 27.21916 | -79.98638 | 30971 ft | 405 kts | 173° |
| 2026-05-03 23:06 | 27.19255 | -79.97648 | 30662 ft | 400 kts | 172° |
| 2026-05-03 23:06 | 27.16633 | -79.96672 | 30357 ft | 394 kts | 172° |
| 2026-05-03 23:06 | 27.14077 | -79.95733 | 30053 ft | 389 kts | 173° |
| 2026-05-03 23:06 | 27.11519 | -79.94805 | 29691 ft | 384 kts | 173° |
| 2026-05-03 23:07 | 27.08990 | -79.93893 | 29296 ft | 379 kts | 173° |
| 2026-05-03 23:07 | 27.06498 | -79.92995 | 28942 ft | 374 kts | 172° |
| 2026-05-03 23:07 | 27.04045 | -79.92045 | 28596 ft | 371 kts | 171° |
| 2026-05-03 23:07 | 27.01631 | -79.91060 | 28261 ft | 367 kts | 170° |
| 2026-05-03 23:08 | 26.99246 | -79.90077 | 27923 ft | 363 kts | 170° |
| 2026-05-03 23:08 | 26.96886 | -79.89109 | 27596 ft | 359 kts | 171° |
| 2026-05-03 23:08 | 26.94553 | -79.88159 | 27273 ft | 355 kts | 171° |
| 2026-05-03 23:08 | 26.92241 | -79.87224 | 26955 ft | 351 kts | 171° |
| 2026-05-03 23:09 | 26.89984 | -79.86314 | 26619 ft | 348 kts | 171° |
| 2026-05-03 23:09 | 26.87713 | -79.85400 | 26317 ft | 345 kts | 171° |
| 2026-05-03 23:09 | 26.85464 | -79.84495 | 26012 ft | 342 kts | 171° |
| 2026-05-03 23:09 | 26.83236 | -79.83599 | 25703 ft | 339 kts | 171° |
| 2026-05-03 23:10 | 26.81022 | -79.82708 | 25399 ft | 336 kts | 171° |
| 2026-05-03 23:10 | 26.78851 | -79.81833 | 25056 ft | 329 kts | 171° |
| 2026-05-03 23:10 | 26.76715 | -79.80973 | 24750 ft | 322 kts | 171° |
| 2026-05-03 23:10 | 26.74615 | -79.80130 | 24341 ft | 323 kts | 171° |
| 2026-05-03 23:11 | 26.72507 | -79.79290 | 23785 ft | 329 kts | 170° |
| 2026-05-03 23:11 | 26.70331 | -79.78687 | 23171 ft | 315 kts | 188° |
| 2026-05-03 23:11 | 26.68222 | -79.78972 | 22671 ft | 298 kts | 202° |
| 2026-05-03 23:11 | 26.66276 | -79.79679 | 22138 ft | 292 kts | 207° |
| 2026-05-03 23:12 | 26.64388 | -79.80491 | 21586 ft | 290 kts | 208° |
| 2026-05-03 23:12 | 26.62509 | -79.81307 | 21046 ft | 289 kts | 207° |
| 2026-05-03 23:12 | 26.60633 | -79.82098 | 20510 ft | 288 kts | 207° |
| 2026-05-03 23:12 | 26.58756 | -79.82873 | 19998 ft | 287 kts | 206° |
| 2026-05-03 23:13 | 26.56884 | -79.83639 | 19478 ft | 286 kts | 206° |
| 2026-05-03 23:13 | 26.55014 | -79.84396 | 18976 ft | 286 kts | 204° |
| 2026-05-03 23:13 | 26.53018 | -79.84755 | 18405 ft | 299 kts | 185° |
| 2026-05-03 23:13 | 26.50978 | -79.84323 | 17889 ft | 309 kts | 166° |
| 2026-05-03 23:14 | 26.49080 | -79.83126 | 17304 ft | 321 kts | 147° |
| 2026-05-03 23:14 | 26.47569 | -79.81260 | 16758 ft | 329 kts | 127° |
| 2026-05-03 23:14 | 26.46568 | -79.78945 | 16267 ft | 332 kts | 115° |
| 2026-05-03 23:14 | 26.45770 | -79.76531 | 15765 ft | 331 kts | 114° |
| 2026-05-03 23:15 | 26.45000 | -79.74110 | 15222 ft | 331 kts | 113° |
| 2026-05-03 23:15 | 26.44240 | -79.71691 | 14707 ft | 330 kts | 111° |
| 2026-05-03 23:15 | 26.43816 | -79.69168 | 14121 ft | 336 kts | 93° |
| 2026-05-03 23:15 | 26.44109 | -79.66592 | 13631 ft | 335 kts | 73° |
| 2026-05-03 23:16 | 26.45081 | -79.64245 | 13064 ft | 333 kts | 54° |
| 2026-05-03 23:16 | 26.46630 | -79.62363 | 12519 ft | 327 kts | 34° |
| 2026-05-03 23:16 | 26.48555 | -79.61079 | 12025 ft | 319 kts | 22° |
| 2026-05-03 23:16 | 26.49878 | -79.60375 | 11708 ft | 317 kts | 21° |
| 2026-05-03 23:17 | 26.51873 | -79.59350 | 11215 ft | 314 kts | 20° |
| 2026-05-03 23:17 | 26.54410 | -79.58053 | 11075 ft | 291 kts | 20° |
| 2026-05-03 23:17 | 26.56205 | -79.57129 | 11013 ft | 279 kts | 20° |
| 2026-05-03 23:17 | 26.58025 | -79.56198 | 11060 ft | 299 kts | 20° |
| 2026-05-03 23:18 | 26.59946 | -79.55225 | 11017 ft | 305 kts | 20° |
| 2026-05-03 23:18 | 26.61228 | -79.54582 | 10962 ft | 305 kts | 18° |
| 2026-05-03 23:18 | 26.63257 | -79.54002 | 10747 ft | 299 kts | 358° |
| 2026-05-03 23:18 | 26.65274 | -79.54227 | 10647 ft | 287 kts | 338° |
| 2026-05-03 23:19 | 26.67026 | -79.55185 | 10511 ft | 277 kts | 317° |
| 2026-05-03 23:19 | 26.68310 | -79.56710 | 10401 ft | 266 kts | 301° |
| 2026-05-03 23:19 | 26.69328 | -79.58415 | 10304 ft | 263 kts | 298° |
| 2026-05-03 23:19 | 26.70312 | -79.60146 | 10169 ft | 263 kts | 298° |
| 2026-05-03 23:20 | 26.71286 | -79.61873 | 10049 ft | 263 kts | 298° |
| 2026-05-03 23:20 | 26.72224 | -79.63626 | 9903 ft | 261 kts | 292° |
| 2026-05-03 23:20 | 26.72758 | -79.65553 | 9742 ft | 258 kts | 276° |
| 2026-05-03 23:20 | 26.72839 | -79.67544 | 9644 ft | 256 kts | 268° |
| 2026-05-03 23:21 | 26.72766 | -79.69532 | 9488 ft | 256 kts | 263° |
| 2026-05-03 23:21 | 26.72518 | -79.71498 | 9364 ft | 255 kts | 261° |
| 2026-05-03 23:21 | 26.72234 | -79.73461 | 9225 ft | 256 kts | 261° |
| 2026-05-03 23:21 | 26.71819 | -79.75396 | 9044 ft | 258 kts | 249° |
| 2026-05-03 23:22 | 26.69627 | -79.78536 | 8777 ft | 263 kts | 218° |
| 2026-05-03 23:22 | 26.68027 | -79.79493 | 8653 ft | 263 kts | 205° |
| 2026-05-03 23:22 | 26.66296 | -79.80081 | 8539 ft | 257 kts | 199° |
| 2026-05-03 23:23 | 26.64584 | -79.80599 | 8401 ft | 253 kts | 200° |
| 2026-05-03 23:23 | 26.62902 | -79.81168 | 8252 ft | 252 kts | 202° |
| 2026-05-03 23:23 | 26.61245 | -79.81793 | 8135 ft | 252 kts | 203° |
| 2026-05-03 23:23 | 26.59593 | -79.82465 | 8042 ft | 254 kts | 204° |
| 2026-05-03 23:24 | 26.57940 | -79.83173 | 8059 ft | 255 kts | 205° |
| 2026-05-03 23:24 | 26.56292 | -79.83902 | 8024 ft | 254 kts | 205° |
| 2026-05-03 23:24 | 26.54664 | -79.84638 | 8045 ft | 252 kts | 206° |
| 2026-05-03 23:24 | 26.53033 | -79.85387 | 8028 ft | 253 kts | 206° |
| 2026-05-03 23:25 | 26.51405 | -79.86141 | 8039 ft | 253 kts | 206° |
| 2026-05-03 23:25 | 26.49781 | -79.86898 | 8028 ft | 253 kts | 207° |
| 2026-05-03 23:25 | 26.48152 | -79.87659 | 8019 ft | 254 kts | 206° |
| 2026-05-03 23:25 | 26.46548 | -79.88410 | 8024 ft | 253 kts | 207° |
| 2026-05-03 23:26 | 26.44929 | -79.89170 | 8032 ft | 252 kts | 207° |
| 2026-05-03 23:26 | 26.43312 | -79.89929 | 8026 ft | 252 kts | 207° |
| 2026-05-03 23:26 | 26.41692 | -79.90689 | 8020 ft | 252 kts | 207° |
| 2026-05-03 23:26 | 26.40080 | -79.91445 | 8041 ft | 251 kts | 207° |
| 2026-05-03 23:27 | 26.38461 | -79.92206 | 8021 ft | 253 kts | 207° |
| 2026-05-03 23:27 | 26.36904 | -79.93098 | 8015 ft | 252 kts | 214° |
| 2026-05-03 23:27 | 26.35397 | -79.94088 | 8033 ft | 251 kts | 214° |
| 2026-05-03 23:27 | 26.33891 | -79.95087 | 7838 ft | 256 kts | 214° |
| 2026-05-03 23:28 | 26.32341 | -79.96103 | 7520 ft | 258 kts | 213° |
| 2026-05-03 23:28 | 26.30800 | -79.97099 | 7231 ft | 256 kts | 213° |
| 2026-05-03 23:28 | 26.29256 | -79.98092 | 6944 ft | 255 kts | 213° |
| 2026-05-03 23:28 | 26.27723 | -79.99077 | 6671 ft | 254 kts | 213° |
| 2026-05-03 23:29 | 26.26217 | -80.00043 | 6400 ft | 253 kts | 213° |
| 2026-05-03 23:29 | 26.24695 | -80.01024 | 6113 ft | 252 kts | 213° |
| 2026-05-03 23:29 | 26.23190 | -80.01989 | 6032 ft | 247 kts | 213° |
| 2026-05-03 23:29 | 26.21710 | -80.02939 | 6026 ft | 244 kts | 213° |
| 2026-05-03 23:30 | 26.20242 | -80.03884 | 6013 ft | 243 kts | 213° |
| 2026-05-03 23:30 | 26.18793 | -80.04850 | 6009 ft | 242 kts | 219° |
| 2026-05-03 23:30 | 26.17762 | -80.06290 | 6045 ft | 238 kts | 244° |
| 2026-05-03 23:30 | 26.17149 | -80.08005 | 6012 ft | 240 kts | 252° |
| 2026-05-03 23:31 | 26.16639 | -80.09774 | 6017 ft | 240 kts | 252° |
| 2026-05-03 23:31 | 26.16125 | -80.11547 | 6005 ft | 241 kts | 252° |
| 2026-05-03 23:31 | 26.15602 | -80.13322 | 6014 ft | 241 kts | 252° |
| 2026-05-03 23:31 | 26.15093 | -80.15094 | 6005 ft | 241 kts | 256° |
| 2026-05-03 23:32 | 26.14959 | -80.16943 | 6030 ft | 239 kts | 270° |
| 2026-05-03 23:32 | 26.14988 | -80.18772 | 6003 ft | 240 kts | 270° |
| 2026-05-03 23:32 | 26.15013 | -80.20622 | 6019 ft | 239 kts | 270° |
| 2026-05-03 23:32 | 26.15033 | -80.22472 | 6023 ft | 239 kts | 269° |
| 2026-05-03 23:33 | 26.15049 | -80.24324 | 6018 ft | 240 kts | 269° |
| 2026-05-03 23:33 | 26.15062 | -80.26181 | 6025 ft | 240 kts | 269° |
| 2026-05-03 23:33 | 26.15072 | -80.28046 | 5890 ft | 245 kts | 269° |
| 2026-05-03 23:33 | 26.15078 | -80.29965 | 5579 ft | 249 kts | 269° |
| 2026-05-03 23:34 | 26.15086 | -80.31887 | 5285 ft | 248 kts | 269° |
| 2026-05-03 23:34 | 26.15096 | -80.33809 | 5011 ft | 248 kts | 270° |
| 2026-05-03 23:34 | 26.15087 | -80.35733 | 4724 ft | 249 kts | 268° |
| 2026-05-03 23:34 | 26.15038 | -80.37661 | 4412 ft | 249 kts | 267° |
| 2026-05-03 23:35 | 26.14978 | -80.39566 | 4126 ft | 249 kts | 268° |
| 2026-05-03 23:35 | 26.14924 | -80.41494 | 3838 ft | 250 kts | 268° |
| 2026-05-03 23:35 | 26.14884 | -80.43429 | 3536 ft | 250 kts | 269° |
| 2026-05-03 23:35 | 26.14875 | -80.45354 | 3244 ft | 249 kts | 271° |
| 2026-05-03 23:36 | 26.14847 | -80.47275 | 3049 ft | 245 kts | 268° |
| 2026-05-03 23:36 | 26.14754 | -80.49137 | 3019 ft | 241 kts | 261° |
| 2026-05-03 23:36 | 26.14249 | -80.50898 | 3023 ft | 238 kts | 242° |
| 2026-05-03 23:36 | 26.13282 | -80.52377 | 3024 ft | 238 kts | 225° |
| 2026-05-03 23:37 | 26.11961 | -80.53442 | 3021 ft | 239 kts | 208° |
| 2026-05-03 23:37 | 26.10376 | -80.54013 | 3022 ft | 244 kts | 189° |
| 2026-05-03 23:37 | 26.08668 | -80.54017 | 3025 ft | 248 kts | 171° |
| 2026-05-03 23:37 | 26.07020 | -80.53450 | 3016 ft | 250 kts | 155° |
| 2026-05-03 23:38 | 26.05592 | -80.52363 | 3017 ft | 249 kts | 137° |
| 2026-05-03 23:38 | 26.04530 | -80.50864 | 3013 ft | 247 kts | 120° |
| 2026-05-03 23:38 | 26.03807 | -80.49141 | 3033 ft | 245 kts | 113° |
| 2026-05-03 23:38 | 26.03267 | -80.47345 | 2995 ft | 246 kts | 99° |
| 2026-05-03 23:39 | 26.03302 | -80.45448 | 2979 ft | 251 kts | 71° |
| 2026-05-03 23:39 | 26.04018 | -80.43675 | 3064 ft | 253 kts | 64° |
| 2026-05-03 23:39 | 26.04745 | -80.41874 | 3020 ft | 256 kts | 66° |
| 2026-05-03 23:39 | 26.05438 | -80.40055 | 3011 ft | 256 kts | 67° |
| 2026-05-03 23:40 | 26.06104 | -80.38246 | 3008 ft | 247 kts | 68° |
| 2026-05-03 23:40 | 26.06715 | -80.36561 | 3011 ft | 229 kts | 68° |
| 2026-05-03 23:40 | 26.07289 | -80.34967 | 3011 ft | 219 kts | 67° |
| 2026-05-03 23:40 | 26.07810 | -80.33393 | 2988 ft | 214 kts | 77° |
| 2026-05-03 23:41 | 26.07869 | -80.31796 | 3017 ft | 202 kts | 93° |
| 2026-05-03 23:41 | 26.07823 | -80.30254 | 3002 ft | 195 kts | 91° |
| 2026-05-03 23:41 | 26.07796 | -80.28762 | 3003 ft | 194 kts | 91° |
| 2026-05-03 23:41 | 26.07776 | -80.27240 | 2836 ft | 197 kts | 91° |
| 2026-05-03 23:42 | 26.07757 | -80.25740 | 2678 ft | 192 kts | 90° |
| 2026-05-03 23:42 | 26.07744 | -80.24253 | 2509 ft | 194 kts | 90° |
| 2026-05-03 23:42 | 26.07738 | -80.22753 | 2395 ft | 194 kts | 89° |
| 2026-05-03 23:42 | 26.07722 | -80.21244 | 2018 ft | 198 kts | 90° |
| 2026-05-03 23:43 | 26.07705 | -80.19707 | 1216 ft | 200 kts | 90° |
| 2026-05-03 23:43 | 26.07696 | -80.18158 | 409 ft | 199 kts | 89° |
| 2026-05-03 23:43 | 26.07689 | -80.16728 | 103 ft | 177 kts | 87° |
| 2026-05-03 23:43 | 26.07695 | -80.15368 | 19 ft | 178 kts | 89° |
| 2026-05-03 23:44 | 26.07679 | -80.14231 | 24 ft | 87 kts | 90° |
| 2026-05-03 23:44 | 26.07649 | -80.14019 | 20 ft | 18 kts | 146° |
| 2026-05-03 23:44 | 26.07575 | -80.14017 | 20 ft | 10 kts | 216° |